Time;durP1;ratioP1;P1;durP2;ratioP2;P2;SDS_P1;SDS_P2;PMS_P1;PMS_P2;Temp;Humidity;BMP_temperature;BMP_pressure;BME280_temperature;BME280_humidity;BME280_pressure;Samples;Min_cycle;Max_cycle;Signal;HPM_P1;HPM_P2
2023/05/23 00:00:16;;;;;;;31.93;26.80;;;;;;;;;;5016075;28;20466;-76
2023/05/23 00:02:44;;;;;;;37.63;28.70;;;;;;;;;;5019616;28;20445;-75
2023/05/23 00:05:11;;;;;;;33.13;28.83;;;;;;;;;;5020318;28;20436;-75
2023/05/23 00:07:39;;;;;;;37.07;30.70;;;;;;;;;;5022095;28;20436;-77
2023/05/23 00:10:18;;;;;;;41.07;33.00;;;;;;;;;;5028688;28;20479;-76
2023/05/23 00:12:56;;;;;;;41.57;32.13;;;;;;;;;;5032745;28;20431;-75
2023/05/23 00:15:26;;;;;;;41.20;33.80;;;;;;;;;;5032214;28;20447;-79
2023/05/23 00:18:01;;;;;;;41.83;32.83;;;;;;;;;;5027532;28;20455;-76
2023/05/23 00:20:33;;;;;;;41.43;34.27;;;;;;;;;;5027541;28;20462;-77
2023/05/23 00:26:12;;;;;;;46.00;35.27;;;;;;;;;;5010702;28;20486;-77
2023/05/23 00:28:42;;;;;;;40.63;35.70;;;;;;;;;;5029384;28;20459;-77
2023/05/23 00:31:21;;;;;;;46.23;35.97;;;;;;;;;;5029047;28;20536;-75
2023/05/23 00:34:19;;;;;;;49.63;38.37;;;;;;;;;;5027946;28;20465;-75
2023/05/23 00:36:57;;;;;;;47.17;36.37;;;;;;;;;;5025130;28;20845;-75
2023/05/23 00:39:31;;;;;;;41.13;35.73;;;;;;;;;;5025185;28;20470;-75
2023/05/23 00:42:10;;;;;;;45.57;36.80;;;;;;;;;;5026537;28;20471;-75
2023/05/23 00:44:43;;;;;;;51.83;38.03;;;;;;;;;;5026458;28;20470;-75
2023/05/23 00:47:20;;;;;;;45.60;35.83;;;;;;;;;;5026522;28;20493;-75
2023/05/23 00:49:55;;;;;;;46.47;36.90;;;;;;;;;;5025538;28;20499;-76
2023/05/23 00:52:47;;;;;;;51.00;38.17;;;;;;;;;;5025612;28;20458;-75
2023/05/23 00:55:27;;;;;;;49.33;37.53;;;;;;;;;;5025273;28;20490;-75
2023/05/23 00:58:07;;;;;;;56.57;41.27;;;;;;;;;;5025565;28;20478;-75
2023/05/23 01:03:20;;;;;;;47.50;38.60;;;;;;;;;;5018176;28;20436;-75
2023/05/23 01:05:50;;;;;;;52.77;39.83;;;;;;;;;;5018623;28;20483;-76
2023/05/23 01:08:18;;;;;;;56.00;42.40;;;;;;;;;;5019088;28;20428;-75
2023/05/23 01:11:04;;;;;;;55.00;39.73;;;;;;;;;;5022810;28;20475;-75
2023/05/23 01:13:38;;;;;;;53.90;39.70;;;;;;;;;;5027196;28;20453;-76
2023/05/23 01:16:17;;;;;;;57.50;42.50;;;;;;;;;;5022024;28;20523;-77
2023/05/23 01:18:53;;;;;;;52.20;39.20;;;;;;;;;;5021385;28;20431;-75
2023/05/23 01:21:30;;;;;;;56.27;42.70;;;;;;;;;;5019724;28;20459;-75
2023/05/23 01:24:16;;;;;;;66.43;43.90;;;;;;;;;;5019341;28;20523;-74
2023/05/23 01:27:01;;;;;;;61.77;44.40;;;;;;;;;;5021813;28;20530;-76
2023/05/23 01:29:36;;;;;;;61.93;44.80;;;;;;;;;;5021909;28;20467;-76
2023/05/23 01:35:15;;;;;;;59.80;44.40;;;;;;;;;;5020223;28;20455;-75
2023/05/23 01:37:52;;;;;;;59.80;44.73;;;;;;;;;;5027305;28;20452;-76
2023/05/23 01:40:55;;;;;;;;;;;;;;;;;;;;;
2023/05/23 01:43:33;;;;;;;58.97;45.20;;;;;;;;;;5022429;28;20489;-75
2023/05/23 01:48:59;;;;;;;61.63;46.37;;;;;;;;;;5019133;28;20467;-75
2023/05/23 01:51:41;;;;;;;67.47;49.20;;;;;;;;;;5020151;28;20467;-77
2023/05/23 01:54:24;;;;;;;71.47;51.60;;;;;;;;;;5020597;28;20443;-76
2023/05/23 02:00:00;;;;;;;65.93;51.40;;;;;;;;;;5009106;28;20525;-75
2023/05/23 02:02:56;;;;;;;78.00;53.77;;;;;;;;;;5018791;28;20452;-75
2023/05/23 02:05:33;;;;;;;66.33;52.20;;;;;;;;;;5020518;28;20455;-75
2023/05/23 02:08:25;;;;;;;72.23;52.53;;;;;;;;;;5020758;28;20502;-76
2023/05/23 02:11:03;;;;;;;71.27;52.67;;;;;;;;;;5015313;28;20476;-75
2023/05/23 02:13:43;;;;;;;74.37;52.63;;;;;;;;;;5017133;28;20474;-74
2023/05/23 02:16:15;;;;;;;83.53;54.67;;;;;;;;;;5019543;28;20442;-75
2023/05/23 02:18:51;;;;;;;79.00;57.50;;;;;;;;;;5020772;28;20451;-76
2023/05/23 02:21:28;;;;;;;74.23;56.77;;;;;;;;;;5021018;28;20857;-76
2023/05/23 02:26:43;;;;;;;75.93;56.17;;;;;;;;;;5017621;28;20988;-75
2023/05/23 02:29:15;;;;;;;75.60;55.97;;;;;;;;;;5020485;28;20506;-74
2023/05/23 02:31:55;;;;;;;71.83;54.37;;;;;;;;;;5022397;28;20447;-75
2023/05/23 02:34:54;;;;;;;76.53;57.30;;;;;;;;;;5024264;28;20450;-76
2023/05/23 02:38:01;;;;;;;73.57;54.77;;;;;;;;;;5025922;28;20478;-76
2023/05/23 02:40:44;;;;;;;75.27;56.73;;;;;;;;;;4946603;29;20477;-77
2023/05/23 02:46:17;;;;;;;74.63;59.13;;;;;;;;;;5022059;28;20472;-75
2023/05/23 02:51:53;;;;;;;74.13;55.40;;;;;;;;;;5015215;28;20455;-75
2023/05/23 02:54:44;;;;;;;76.43;57.20;;;;;;;;;;5019925;28;20479;-75
2023/05/23 02:57:22;;;;;;;75.33;56.73;;;;;;;;;;5020402;28;20489;-74
2023/05/23 03:00:04;;;;;;;66.83;55.13;;;;;;;;;;5018232;28;20475;-75
2023/05/23 03:03:04;;;;;;;70.07;54.40;;;;;;;;;;5019535;28;20462;-77
2023/05/23 03:08:50;;;;;;;70.97;55.03;;;;;;;;;;4921611;29;20516;-76
2023/05/23 03:11:34;;;;;;;76.50;56.17;;;;;;;;;;4924966;28;20476;-75
2023/05/23 03:20:30;;;;;;;;;;;;;;;;;;;;;
2023/05/23 03:23:08;;;;;;;68.10;53.77;;;;;;;;;;5019403;28;20440;-75
2023/05/23 03:26:00;;;;;;;71.47;53.67;;;;;;;;;;5019399;28;20463;-76
2023/05/23 03:28:43;;;;;;;67.47;53.13;;;;;;;;;;5021174;28;20459;-74
2023/05/23 03:31:16;;;;;;;64.50;53.40;;;;;;;;;;5021760;28;20537;-76
2023/05/23 03:36:48;;;;;;;71.90;54.90;;;;;;;;;;4990874;28;20457;-75
2023/05/23 03:39:24;;;;;;;65.07;52.70;;;;;;;;;;5025168;28;20467;-75
2023/05/23 03:41:58;;;;;;;66.60;54.00;;;;;;;;;;5024634;28;20454;-76
2023/05/23 03:44:44;;;;;;;61.90;50.80;;;;;;;;;;5023141;28;20462;-76
2023/05/23 03:47:15;;;;;;;64.13;52.60;;;;;;;;;;5017409;28;20506;-74
2023/05/23 03:49:57;;;;;;;66.47;53.07;;;;;;;;;;5023481;28;20444;-75
2023/05/23 03:52:36;;;;;;;64.90;52.33;;;;;;;;;;5022542;28;20542;-76
2023/05/23 03:55:20;;;;;;;61.73;52.30;;;;;;;;;;5021797;28;20459;-76
2023/05/23 03:57:57;;;;;;;64.70;52.90;;;;;;;;;;5019884;28;20447;-76
2023/05/23 04:00:37;;;;;;;63.10;50.90;;;;;;;;;;5020566;28;20975;-77
2023/05/23 04:03:07;;;;;;;58.73;49.47;;;;;;;;;;5021980;28;20459;-75
2023/05/23 04:05:35;;;;;;;56.63;50.00;;;;;;;;;;5022616;28;20467;-78
2023/05/23 04:08:16;;;;;;;56.50;49.03;;;;;;;;;;5019308;28;20509;-77
2023/05/23 04:10:54;;;;;;;60.40;52.27;;;;;;;;;;5017263;28;20475;-76
2023/05/23 04:13:27;;;;;;;65.13;52.40;;;;;;;;;;5016340;28;20448;-75
2023/05/23 04:16:06;;;;;;;64.13;50.70;;;;;;;;;;5016412;28;20462;-76
2023/05/23 04:18:37;;;;;;;64.60;50.87;;;;;;;;;;5018658;28;20466;-77
2023/05/23 04:21:33;;;;;;;56.33;50.13;;;;;;;;;;5019156;28;20492;-76
2023/05/23 04:24:11;;;;;;;57.93;49.00;;;;;;;;;;5018883;28;20447;-75
2023/05/23 04:26:49;;;;;;;58.50;51.20;;;;;;;;;;5018232;28;20479;-76
2023/05/23 04:29:38;;;;;;;61.50;50.37;;;;;;;;;;5016930;28;20465;-76
2023/05/23 04:32:24;;;;;;;55.90;48.53;;;;;;;;;;5017042;28;20502;-75
2023/05/23 04:40:34;;;;;;;61.70;48.07;;;;;;;;;;5003870;28;20470;-76
2023/05/23 04:43:08;;;;;;;58.67;47.60;;;;;;;;;;5017058;28;20542;-77
2023/05/23 04:45:42;;;;;;;53.97;48.07;;;;;;;;;;5017317;28;20428;-75
2023/05/23 04:51:07;;;;;;;56.03;47.90;;;;;;;;;;4956530;29;21023;-77
2023/05/23 04:53:49;;;;;;;53.53;47.70;;;;;;;;;;4956908;28;20456;-76
2023/05/23 04:56:19;;;;;;;57.90;46.80;;;;;;;;;;5016372;28;20439;-76
2023/05/23 04:58:54;;;;;;;57.00;47.70;;;;;;;;;;5016356;28;20938;-75
2023/05/23 05:01:25;;;;;;;55.70;49.60;;;;;;;;;;5017022;28;20471;-76
2023/05/23 05:03:54;;;;;;;53.27;47.50;;;;;;;;;;5017655;28;21020;-77
2023/05/23 05:06:23;;;;;;;53.60;46.47;;;;;;;;;;5019069;28;20459;-76
2023/05/23 05:08:51;;;;;;;57.57;50.20;;;;;;;;;;5019639;28;20566;-75
2023/05/23 05:11:20;;;;;;;52.73;45.30;;;;;;;;;;5019696;28;20502;-76
2023/05/23 05:13:49;;;;;;;53.17;47.23;;;;;;;;;;5019057;28;20435;-77
2023/05/23 05:16:18;;;;;;;58.67;49.40;;;;;;;;;;5019798;28;20440;-78
2023/05/23 05:18:48;;;;;;;56.70;48.10;;;;;;;;;;5020222;28;20435;-75
2023/05/23 05:21:16;;;;;;;54.83;48.60;;;;;;;;;;5019880;28;20563;-75
2023/05/23 05:23:46;;;;;;;52.87;47.20;;;;;;;;;;5019138;28;20451;-76
2023/05/23 05:26:18;;;;;;;51.60;44.43;;;;;;;;;;5019422;28;20462;-76
2023/05/23 05:28:53;;;;;;;52.50;45.67;;;;;;;;;;5019470;28;20479;-75
2023/05/23 05:31:31;;;;;;;51.77;46.33;;;;;;;;;;5018406;28;20494;-75
2023/05/23 05:34:04;;;;;;;50.60;44.73;;;;;;;;;;5019393;28;20522;-77
2023/05/23 05:36:34;;;;;;;51.03;45.50;;;;;;;;;;5020676;28;20479;-76
2023/05/23 05:39:09;;;;;;;54.17;46.97;;;;;;;;;;5019392;28;20957;-77
2023/05/23 05:44:36;;;;;;;50.67;45.03;;;;;;;;;;5022893;28;20991;-77
2023/05/23 05:47:03;;;;;;;52.00;46.53;;;;;;;;;;5023074;28;20910;-78
2023/05/23 05:49:44;;;;;;;53.13;47.47;;;;;;;;;;5023633;28;20475;-78
2023/05/23 05:52:21;;;;;;;53.20;45.67;;;;;;;;;;5026630;28;20818;-78
2023/05/23 05:54:50;;;;;;;56.30;47.50;;;;;;;;;;5029058;28;20985;-78
2023/05/23 05:57:19;;;;;;;53.13;47.37;;;;;;;;;;5031909;28;20427;-76
2023/05/23 05:59:55;;;;;;;51.53;45.30;;;;;;;;;;5029919;28;20491;-77
2023/05/23 06:02:25;;;;;;;51.13;45.63;;;;;;;;;;5032597;28;20412;-77
2023/05/23 06:04:59;;;;;;;49.60;44.27;;;;;;;;;;5033347;28;20470;-76
2023/05/23 06:07:27;;;;;;;50.07;44.77;;;;;;;;;;5028122;28;20997;-78
2023/05/23 06:09:59;;;;;;;50.83;45.63;;;;;;;;;;5031310;28;20471;-76
2023/05/23 06:12:35;;;;;;;50.83;45.63;;;;;;;;;;5029880;28;20515;-78
2023/05/23 06:15:09;;;;;;;49.83;44.73;;;;;;;;;;5029954;28;20451;-76
2023/05/23 06:17:39;;;;;;;50.27;45.07;;;;;;;;;;5028401;28;20450;-76
2023/05/23 06:20:10;;;;;;;51.60;46.30;;;;;;;;;;5021765;28;20527;-77
2023/05/23 06:22:40;;;;;;;52.27;46.80;;;;;;;;;;5016489;28;20439;-77
2023/05/23 06:25:12;;;;;;;52.10;46.80;;;;;;;;;;5018296;28;20893;-78
2023/05/23 06:27:43;;;;;;;52.60;47.20;;;;;;;;;;5016757;28;20485;-76
2023/05/23 06:30:16;;;;;;;51.03;45.70;;;;;;;;;;5017002;28;20953;-78
2023/05/23 06:35:37;;;;;;;51.07;45.87;;;;;;;;;;5015528;28;20451;-76
2023/05/23 06:43:54;;;;;;;53.03;47.30;;;;;;;;;;5015215;28;20501;-76
2023/05/23 06:46:29;;;;;;;50.10;44.93;;;;;;;;;;5017469;28;20443;-76
2023/05/23 06:49:01;;;;;;;50.93;45.87;;;;;;;;;;5016602;28;20824;-77
2023/05/23 06:51:36;;;;;;;50.07;44.93;;;;;;;;;;5016140;28;20460;-76
2023/05/23 06:54:09;;;;;;;49.57;44.40;;;;;;;;;;5016775;28;20541;-76
2023/05/23 06:56:41;;;;;;;50.13;44.93;;;;;;;;;;5016966;28;20451;-77
2023/05/23 06:59:12;;;;;;;50.27;45.03;;;;;;;;;;5017255;28;20452;-77
2023/05/23 07:01:41;;;;;;;51.47;45.90;;;;;;;;;;5014296;28;20451;-76
2023/05/23 07:04:16;;;;;;;52.07;44.83;;;;;;;;;;5015833;28;20571;-77
2023/05/23 07:06:49;;;;;;;49.70;44.30;;;;;;;;;;5017193;28;20819;-78
2023/05/23 07:09:37;;;;;;;49.77;44.57;;;;;;;;;;5016315;28;20463;-77
2023/05/23 07:12:06;;;;;;;48.23;43.10;;;;;;;;;;5015268;28;20459;-78
2023/05/23 07:14:41;;;;;;;48.87;43.60;;;;;;;;;;5016216;28;20459;-76
2023/05/23 07:17:11;;;;;;;46.07;39.70;;;;;;;;;;5019242;28;20450;-75
2023/05/23 07:19:40;;;;;;;44.80;40.23;;;;;;;;;;5017931;28;20479;-76
2023/05/23 07:22:11;;;;;;;44.33;39.80;;;;;;;;;;5016892;28;20554;-76
2023/05/23 07:25:05;;;;;;;41.37;37.13;;;;;;;;;;5017451;28;20459;-75
2023/05/23 07:27:36;;;;;;;39.73;35.90;;;;;;;;;;5018158;28;20479;-76
2023/05/23 07:30:32;;;;;;;38.60;34.80;;;;;;;;;;5017256;28;20483;-76
2023/05/23 07:33:00;;;;;;;37.07;33.30;;;;;;;;;;5016632;28;20546;-76
2023/05/23 07:35:35;;;;;;;34.83;31.53;;;;;;;;;;5018320;28;20451;-76
2023/05/23 07:41:04;;;;;;;33.33;29.90;;;;;;;;;;4991115;28;20541;-76
2023/05/23 07:43:33;;;;;;;37.20;33.53;;;;;;;;;;5016015;28;20451;-77
2023/05/23 07:46:05;;;;;;;40.53;36.33;;;;;;;;;;5016052;28;20462;-76
2023/05/23 07:48:40;;;;;;;43.30;38.90;;;;;;;;;;5017930;28;20487;-76
2023/05/23 07:51:09;;;;;;;43.13;38.83;;;;;;;;;;5016203;28;20510;-76
2023/05/23 07:53:40;;;;;;;42.90;38.70;;;;;;;;;;5015760;28;20470;-78
2023/05/23 07:56:17;;;;;;;42.67;38.40;;;;;;;;;;5015550;28;20486;-78
2023/05/23 07:58:50;;;;;;;37.23;33.60;;;;;;;;;;5015533;28;20446;-76
2023/05/23 08:04:19;;;;;;;36.00;32.30;;;;;;;;;;4967691;29;20446;-76
2023/05/23 08:06:50;;;;;;;32.53;29.30;;;;;;;;;;5023628;28;20857;-77
2023/05/23 08:09:20;;;;;;;30.93;27.70;;;;;;;;;;5025797;28;20489;-77
2023/05/23 08:11:50;;;;;;;30.13;27.13;;;;;;;;;;5026933;28;20474;-78
2023/05/23 08:14:35;;;;;;;30.17;27.37;;;;;;;;;;5025994;28;20451;-77
2023/05/23 08:17:06;;;;;;;30.33;27.37;;;;;;;;;;5029426;28;20423;-79
2023/05/23 08:19:36;;;;;;;27.87;25.27;;;;;;;;;;5030804;28;20570;-76
2023/05/23 08:22:15;;;;;;;31.10;28.03;;;;;;;;;;5028694;28;20451;-79
2023/05/23 08:24:57;;;;;;;31.27;28.03;;;;;;;;;;5028673;28;20525;-75
2023/05/23 08:27:27;;;;;;;29.30;26.30;;;;;;;;;;5031174;28;20451;-75
2023/05/23 08:30:02;;;;;;;28.63;25.93;;;;;;;;;;5033104;28;20498;-78
2023/05/23 08:32:52;;;;;;;29.73;27.03;;;;;;;;;;5033297;28;20470;-78
2023/05/23 08:35:35;;;;;;;28.70;25.90;;;;;;;;;;5019763;28;20447;-77
2023/05/23 08:38:14;;;;;;;28.93;26.13;;;;;;;;;;5033730;28;20447;-78
2023/05/23 08:41:10;;;;;;;27.97;24.97;;;;;;;;;;5032712;28;20463;-79
2023/05/23 08:44:06;;;;;;;27.03;24.53;;;;;;;;;;4991326;28;20472;-77
2023/05/23 08:46:49;;;;;;;28.23;25.70;;;;;;;;;;4991146;28;20827;-77
2023/05/23 08:49:23;;;;;;;26.00;23.40;;;;;;;;;;5014911;28;20471;-78
2023/05/23 08:52:10;;;;;;;26.60;24.00;;;;;;;;;;5032115;28;20419;-76
2023/05/23 08:54:48;;;;;;;26.13;23.47;;;;;;;;;;5032374;28;20456;-76
2023/05/23 08:57:27;;;;;;;25.23;22.83;;;;;;;;;;5027775;28;20471;-77
2023/05/23 08:59:57;;;;;;;25.83;23.47;;;;;;;;;;5028840;28;20494;-78
2023/05/23 09:07:58;;;;;;;27.27;24.77;;;;;;;;;;4949246;29;20463;-78
2023/05/23 09:13:24;;;;;;;27.90;25.40;;;;;;;;;;5026250;28;20495;-79
2023/05/23 09:16:03;;;;;;;26.27;23.87;;;;;;;;;;5027616;28;20443;-76
2023/05/23 09:18:38;;;;;;;24.33;22.00;;;;;;;;;;5029656;28;20454;-77
2023/05/23 09:21:07;;;;;;;24.83;22.63;;;;;;;;;;5030620;28;20466;-77
2023/05/23 09:23:38;;;;;;;25.47;23.07;;;;;;;;;;5030121;28;20451;-77
2023/05/23 09:26:10;;;;;;;25.03;22.63;;;;;;;;;;5027076;28;20451;-77
2023/05/23 09:28:39;;;;;;;24.63;22.27;;;;;;;;;;5026362;28;20491;-76
2023/05/23 09:31:09;;;;;;;24.20;21.90;;;;;;;;;;5027350;28;20518;-75
2023/05/23 09:33:41;;;;;;;24.10;21.83;;;;;;;;;;5027470;28;20451;-77
2023/05/23 09:36:13;;;;;;;22.30;19.63;;;;;;;;;;5026522;28;20434;-77
2023/05/23 09:41:26;;;;;;;23.13;20.73;;;;;;;;;;5024426;28;20491;-78
2023/05/23 09:44:16;;;;;;;20.37;18.37;;;;;;;;;;5022751;28;20444;-76
2023/05/23 09:46:47;;;;;;;22.87;20.53;;;;;;;;;;5022344;28;20456;-77
2023/05/23 09:49:21;;;;;;;22.40;20.30;;;;;;;;;;5022433;28;20570;-76
2023/05/23 09:52:00;;;;;;;20.80;18.80;;;;;;;;;;5020342;28;20478;-77
2023/05/23 09:54:49;;;;;;;21.47;19.50;;;;;;;;;;5024389;28;20474;-76
2023/05/23 10:00:32;;;;;;;19.90;18.20;;;;;;;;;;4967069;29;20493;-76
2023/05/23 10:03:22;;;;;;;19.87;18.03;;;;;;;;;;4993633;28;20450;-77
2023/05/23 10:08:50;;;;;;;18.47;16.87;;;;;;;;;;5031444;28;20518;-77
2023/05/23 10:11:40;;;;;;;19.30;17.50;;;;;;;;;;5028240;28;20467;-77
2023/05/23 10:14:17;;;;;;;17.27;15.77;;;;;;;;;;5029447;28;20459;-76
2023/05/23 10:22:54;;;;;;;18.10;16.30;;;;;;;;;;5025798;28;20443;-77
2023/05/23 10:25:37;;;;;;;17.40;15.70;;;;;;;;;;5022205;28;20435;-78
2023/05/23 10:28:12;;;;;;;16.03;14.70;;;;;;;;;;5029665;28;20435;-76
2023/05/23 10:30:45;;;;;;;15.70;14.30;;;;;;;;;;5026656;28;20497;-76
2023/05/23 10:33:21;;;;;;;15.30;14.10;;;;;;;;;;5030530;28;20447;-78
2023/05/23 10:35:55;;;;;;;16.97;15.43;;;;;;;;;;5031662;28;20443;-77
2023/05/23 10:38:38;;;;;;;15.80;14.40;;;;;;;;;;5032427;28;20455;-76
2023/05/23 10:41:17;;;;;;;15.10;13.80;;;;;;;;;;5031158;28;20924;-77
2023/05/23 10:44:13;;;;;;;15.67;14.37;;;;;;;;;;5032445;28;20451;-77
2023/05/23 10:49:47;;;;;;;14.87;13.57;;;;;;;;;;5032897;28;20487;-76
2023/05/23 10:58:36;;;;;;;15.13;13.83;;;;;;;;;;5033449;28;20427;-76
2023/05/23 11:04:33;;;;;;;16.40;14.07;;;;;;;;;;5023704;28;20419;-77
2023/05/23 11:07:24;;;;;;;13.27;12.07;;;;;;;;;;5037610;28;20479;-77
2023/05/23 11:10:22;;;;;;;13.70;12.20;;;;;;;;;;5034219;28;20510;-77
2023/05/23 11:13:33;;;;;;;12.37;11.37;;;;;;;;;;5008579;28;20444;-77
2023/05/23 11:16:39;;;;;;;12.97;11.87;;;;;;;;;;5030622;28;20506;-78
2023/05/23 11:19:35;;;;;;;12.53;11.37;;;;;;;;;;5036491;28;20451;-77
2023/05/23 11:22:04;;;;;;;13.60;12.50;;;;;;;;;;5038482;28;20471;-76
2023/05/23 11:24:59;;;;;;;11.50;10.60;;;;;;;;;;5038355;28;20514;-77
2023/05/23 11:27:40;;;;;;;13.27;11.87;;;;;;;;;;5032458;28;20513;-77
2023/05/23 11:30:12;;;;;;;12.83;11.77;;;;;;;;;;5021241;28;20539;-78
2023/05/23 11:32:43;;;;;;;11.13;10.27;;;;;;;;;;5018974;28;20467;-78
2023/05/23 11:35:11;;;;;;;11.70;10.70;;;;;;;;;;5019953;28;20439;-77
2023/05/23 11:40:34;;;;;;;13.40;12.30;;;;;;;;;;5013882;28;20467;-77
2023/05/23 11:43:27;;;;;;;14.97;13.77;;;;;;;;;;5014765;28;20447;-76
2023/05/23 11:49:18;;;;;;;15.00;13.70;;;;;;;;;;5013863;28;21019;-78
2023/05/23 11:51:57;;;;;;;15.03;13.63;;;;;;;;;;5015140;28;20486;-77
2023/05/23 11:54:38;;;;;;;13.57;12.57;;;;;;;;;;5016393;28;20482;-77
2023/05/23 11:57:07;;;;;;;14.13;13.07;;;;;;;;;;5021155;28;20462;-76
2023/05/23 12:02:33;;;;;;;13.87;12.67;;;;;;;;;;5006360;28;20960;-77
2023/05/23 12:05:12;;;;;;;13.40;12.07;;;;;;;;;;5019530;28;20451;-77
2023/05/23 12:07:43;;;;;;;13.37;11.97;;;;;;;;;;5018251;28;20447;-77
2023/05/23 12:10:13;;;;;;;14.43;13.00;;;;;;;;;;5017783;28;20487;-77
2023/05/23 12:12:47;;;;;;;13.53;12.47;;;;;;;;;;5018309;28;20457;-79
2023/05/23 12:15:20;;;;;;;13.40;12.30;;;;;;;;;;5015517;28;20479;-77
2023/05/23 12:18:11;;;;;;;12.47;11.53;;;;;;;;;;5015148;28;20467;-77
2023/05/23 12:20:58;;;;;;;17.10;15.70;;;;;;;;;;5014519;28;20470;-78
2023/05/23 12:23:34;;;;;;;11.27;10.37;;;;;;;;;;5015646;28;20460;-79
2023/05/23 12:26:11;;;;;;;11.20;10.10;;;;;;;;;;5015256;28;21036;-77
2023/05/23 12:29:00;;;;;;;10.70;9.80;;;;;;;;;;5015923;28;20932;-77
2023/05/23 12:31:28;;;;;;;11.07;9.97;;;;;;;;;;5017175;28;20618;-76
2023/05/23 12:33:56;;;;;;;11.00;10.20;;;;;;;;;;5019261;28;20454;-78
2023/05/23 12:36:30;;;;;;;10.73;9.93;;;;;;;;;;5021500;28;20444;-77
2023/05/23 12:39:03;;;;;;;10.63;9.70;;;;;;;;;;5020284;28;20451;-77
2023/05/23 12:41:30;;;;;;;10.10;9.30;;;;;;;;;;5017726;28;20451;-79
2023/05/23 12:44:01;;;;;;;10.83;9.93;;;;;;;;;;5018891;28;20464;-78
2023/05/23 12:46:29;;;;;;;8.90;8.20;;;;;;;;;;5017992;28;20498;-76
2023/05/23 12:49:01;;;;;;;10.20;9.30;;;;;;;;;;5018258;28;20477;-78
2023/05/23 12:51:42;;;;;;;9.40;8.70;;;;;;;;;;5021251;28;20475;-77
2023/05/23 12:54:12;;;;;;;10.30;9.33;;;;;;;;;;5019582;28;20465;-79
2023/05/23 12:56:55;;;;;;;9.90;9.00;;;;;;;;;;5020586;28;20455;-77
2023/05/23 12:59:33;;;;;;;9.73;8.87;;;;;;;;;;5019035;28;20446;-76
2023/05/23 13:02:15;;;;;;;7.30;6.80;;;;;;;;;;5018431;28;20515;-78
2023/05/23 13:04:45;;;;;;;9.67;8.87;;;;;;;;;;5020268;28;20447;-78
2023/05/23 13:07:14;;;;;;;9.47;8.60;;;;;;;;;;5017915;28;20463;-77
2023/05/23 13:09:42;;;;;;;8.00;7.40;;;;;;;;;;5016444;28;20483;-76
2023/05/23 13:12:11;;;;;;;8.33;7.73;;;;;;;;;;5016168;28;20786;-79
2023/05/23 13:14:39;;;;;;;9.03;8.37;;;;;;;;;;5016381;28;20464;-77
2023/05/23 13:17:09;;;;;;;8.80;8.10;;;;;;;;;;5016423;28;20452;-77
2023/05/23 13:19:37;;;;;;;8.03;7.43;;;;;;;;;;5016178;28;20478;-77
2023/05/23 13:22:09;;;;;;;8.20;7.60;;;;;;;;;;5016561;28;21216;-76
2023/05/23 13:24:38;;;;;;;6.77;6.37;;;;;;;;;;5015541;28;20483;-77
2023/05/23 13:27:07;;;;;;;7.03;6.47;;;;;;;;;;5016708;28;20451;-78
2023/05/23 13:29:38;;;;;;;7.57;6.87;;;;;;;;;;5016327;28;20538;-77
2023/05/23 13:32:06;;;;;;;8.10;7.50;;;;;;;;;;5020022;28;20458;-75
2023/05/23 13:34:36;;;;;;;7.53;6.73;;;;;;;;;;5020429;28;20452;-78
2023/05/23 13:37:04;;;;;;;7.30;6.70;;;;;;;;;;5021271;28;20495;-77
2023/05/23 13:39:32;;;;;;;7.80;7.20;;;;;;;;;;5022866;28;20498;-79
2023/05/23 13:42:02;;;;;;;6.50;6.10;;;;;;;;;;5021002;28;20453;-77
2023/05/23 13:44:30;;;;;;;6.87;6.27;;;;;;;;;;5019782;28;20523;-77
2023/05/23 13:46:59;;;;;;;7.80;7.10;;;;;;;;;;5017393;28;20549;-78
2023/05/23 13:49:26;;;;;;;7.30;6.80;;;;;;;;;;5018600;28;20567;-76
2023/05/23 13:51:54;;;;;;;6.30;5.80;;;;;;;;;;5020285;28;20455;-77
2023/05/23 13:54:22;;;;;;;6.27;5.87;;;;;;;;;;5020884;28;20486;-77
2023/05/23 13:56:50;;;;;;;7.40;6.80;;;;;;;;;;5020419;28;20501;-76
2023/05/23 13:59:20;;;;;;;7.23;6.70;;;;;;;;;;5018141;28;20446;-78
2023/05/23 14:01:48;;;;;;;7.67;7.07;;;;;;;;;;5018524;28;20458;-77
2023/05/23 14:04:16;;;;;;;7.30;6.70;;;;;;;;;;5017871;28;20971;-77
2023/05/23 14:06:44;;;;;;;6.07;5.67;;;;;;;;;;5019550;28;20445;-78
2023/05/23 14:09:12;;;;;;;6.63;6.13;;;;;;;;;;5022258;28;20451;-78
2023/05/23 14:11:39;;;;;;;9.03;7.00;;;;;;;;;;5023926;28;20845;-77
2023/05/23 14:14:07;;;;;;;7.00;6.50;;;;;;;;;;5020976;28;20451;-78
2023/05/23 14:16:37;;;;;;;6.13;5.73;;;;;;;;;;5022485;28;20451;-77
2023/05/23 14:19:05;;;;;;;7.30;6.80;;;;;;;;;;5022762;28;20879;-76
2023/05/23 14:21:42;;;;;;;7.57;6.97;;;;;;;;;;5023612;28;20946;-75
2023/05/23 14:24:20;;;;;;;5.63;5.23;;;;;;;;;;5033055;28;20523;-75
2023/05/23 14:26:57;;;;;;;6.90;6.40;;;;;;;;;;5031896;28;20469;-76
2023/05/23 14:29:26;;;;;;;7.20;6.70;;;;;;;;;;5030458;28;20467;-78
2023/05/23 14:32:05;;;;;;;7.33;6.83;;;;;;;;;;5028415;28;20447;-77
2023/05/23 14:34:39;;;;;;;7.27;6.67;;;;;;;;;;5024468;28;20528;-78
2023/05/23 14:37:07;;;;;;;8.10;7.00;;;;;;;;;;5021657;28;20447;-77
2023/05/23 14:39:38;;;;;;;6.30;5.90;;;;;;;;;;5018160;28;20479;-76
2023/05/23 14:42:17;;;;;;;6.97;6.30;;;;;;;;;;5025591;28;20455;-77
2023/05/23 14:44:52;;;;;;;6.20;5.70;;;;;;;;;;5030536;28;20451;-78
2023/05/23 14:53:30;;;;;;;7.70;7.10;;;;;;;;;;5038760;28;20430;-77
2023/05/23 14:56:07;;;;;;;6.50;6.00;;;;;;;;;;5040398;28;20546;-76
2023/05/23 14:58:35;;;;;;;6.00;5.50;;;;;;;;;;5040469;28;20478;-76
2023/05/23 15:01:04;;;;;;;6.70;6.20;;;;;;;;;;5037663;28;20514;-77
2023/05/23 15:03:35;;;;;;;8.67;6.93;;;;;;;;;;5027539;28;20475;-78
2023/05/23 15:06:05;;;;;;;6.53;6.13;;;;;;;;;;5015270;28;20465;-77
2023/05/23 15:08:34;;;;;;;6.07;5.60;;;;;;;;;;5015387;28;20455;-77
2023/05/23 15:11:02;;;;;;;6.70;6.20;;;;;;;;;;5015140;28;20522;-78
2023/05/23 15:13:30;;;;;;;6.07;5.67;;;;;;;;;;5016233;28;20466;-77
2023/05/23 15:15:59;;;;;;;6.80;6.30;;;;;;;;;;5015972;28;21047;-77
2023/05/23 15:18:33;;;;;;;6.43;5.97;;;;;;;;;;5014727;28;20550;-76
2023/05/23 15:21:14;;;;;;;5.77;5.27;;;;;;;;;;4994903;28;20488;-78
2023/05/23 15:23:43;;;;;;;6.03;5.43;;;;;;;;;;4995249;28;20487;-77
2023/05/23 15:26:12;;;;;;;6.13;5.50;;;;;;;;;;4994737;28;20560;-77
2023/05/23 15:28:39;;;;;;;5.90;5.40;;;;;;;;;;4995364;28;20892;-76
2023/05/23 15:31:08;;;;;;;5.40;5.00;;;;;;;;;;4994914;28;20503;-77
2023/05/23 15:33:41;;;;;;;5.50;4.67;;;;;;;;;;4995122;28;20460;-77
2023/05/23 15:36:12;;;;;;;5.10;4.60;;;;;;;;;;4994588;28;20424;-78
2023/05/23 15:38:40;;;;;;;5.73;4.70;;;;;;;;;;4995200;28;20535;-78
2023/05/23 15:41:09;;;;;;;6.07;5.67;;;;;;;;;;4994935;28;21023;-78
2023/05/23 15:43:38;;;;;;;6.60;6.20;;;;;;;;;;4995091;28;20444;-77
2023/05/23 15:46:06;;;;;;;7.13;6.40;;;;;;;;;;4995892;28;20882;-77
2023/05/23 15:48:34;;;;;;;7.37;6.40;;;;;;;;;;5001987;28;20460;-77
2023/05/23 15:51:05;;;;;;;8.50;7.00;;;;;;;;;;5002157;28;21052;-79
2023/05/23 15:53:37;;;;;;;6.97;6.30;;;;;;;;;;5003973;28;20473;-76
2023/05/23 15:56:16;;;;;;;6.20;5.80;;;;;;;;;;5002195;28;20456;-79
2023/05/23 15:58:58;;;;;;;5.83;5.43;;;;;;;;;;5002543;28;20547;-76
2023/05/23 16:01:52;;;;;;;6.40;5.80;;;;;;;;;;5003364;28;20534;-76
2023/05/23 16:07:10;;;;;;;5.90;5.50;;;;;;;;;;4982369;28;20973;-78
2023/05/23 16:09:41;;;;;;;12.17;6.47;;;;;;;;;;4998086;28;20464;-78
2023/05/23 16:12:14;;;;;;;6.80;6.33;;;;;;;;;;4999131;28;20476;-76
2023/05/23 16:14:43;;;;;;;7.67;7.17;;;;;;;;;;5005712;28;20452;-77
2023/05/23 16:23:15;;;;;;;9.20;8.50;;;;;;;;;;4987395;28;20432;-77
2023/05/23 16:25:58;;;;;;;8.60;7.90;;;;;;;;;;5002611;28;20568;-76
2023/05/23 16:28:31;;;;;;;10.27;9.37;;;;;;;;;;4970661;28;20941;-78
2023/05/23 16:30:59;;;;;;;9.40;8.70;;;;;;;;;;5001121;28;20554;-78
2023/05/23 16:33:28;;;;;;;8.30;7.70;;;;;;;;;;5000533;28;20436;-77
2023/05/23 16:35:59;;;;;;;7.80;7.10;;;;;;;;;;5001999;28;20452;-78
2023/05/23 16:38:27;;;;;;;8.13;7.43;;;;;;;;;;5001243;28;21005;-78
2023/05/23 16:40:55;;;;;;;8.57;7.77;;;;;;;;;;4998536;28;20468;-76
2023/05/23 16:43:23;;;;;;;9.60;8.80;;;;;;;;;;4997589;28;20460;-77
2023/05/23 16:45:53;;;;;;;10.53;9.67;;;;;;;;;;5003698;28;20436;-77
2023/05/23 16:48:21;;;;;;;11.00;10.20;;;;;;;;;;5006507;28;20447;-77
2023/05/23 16:50:49;;;;;;;10.07;9.20;;;;;;;;;;5005113;28;20488;-76
2023/05/23 16:53:23;;;;;;;10.37;9.67;;;;;;;;;;5007754;28;20437;-78
2023/05/23 16:55:51;;;;;;;10.57;9.67;;;;;;;;;;5005263;28;20952;-77
2023/05/23 16:58:19;;;;;;;10.07;9.30;;;;;;;;;;5005071;28;20460;-76
2023/05/23 17:00:48;;;;;;;10.67;9.67;;;;;;;;;;5004843;28;21050;-77
2023/05/23 17:03:17;;;;;;;10.70;9.80;;;;;;;;;;5002352;28;20516;-77
2023/05/23 17:05:45;;;;;;;9.87;9.07;;;;;;;;;;5002655;28;20456;-77
2023/05/23 17:08:14;;;;;;;10.07;9.17;;;;;;;;;;5002497;28;20487;-78
2023/05/23 17:10:42;;;;;;;10.63;9.63;;;;;;;;;;5003912;28;20570;-77
2023/05/23 17:13:10;;;;;;;10.07;9.27;;;;;;;;;;5008548;28;20501;-77